Time;durP1;ratioP1;P1;durP2;ratioP2;P2;SDS_P1;SDS_P2;PMS_P1;PMS_P2;Temp;Humidity;BMP_temperature;BMP_pressure;BME280_temperature;BME280_humidity;BME280_pressure;Samples;Min_cycle;Max_cycle;Signal;HPM_P1;HPM_P2
2021/10/08 00:01:35;;;;;;;3.55;1.52;;;;;;;;;;4861630;29;20569;-78
2021/10/08 00:04:03;;;;;;;3.42;1.45;;;;;;;;;;4866045;29;20128;-78
2021/10/08 00:06:32;;;;;;;3.33;1.27;;;;;;;;;;4860400;29;20059;-79
2021/10/08 00:09:01;;;;;;;2.80;1.20;;;;;;;;;;4854767;29;20049;-79
2021/10/08 00:11:28;;;;;;;3.00;1.48;;;;;;;;;;4857272;29;20120;-79
2021/10/08 00:13:55;;;;;;;3.47;1.35;;;;;;;;;;4847648;29;20049;-78
2021/10/08 00:16:22;;;;;;;3.92;1.83;;;;;;;;;;4858793;29;20052;-78
2021/10/08 00:18:50;;;;;;;2.72;1.08;;;;;;;;;;4844094;29;20091;-79
2021/10/08 00:21:18;;;;;;;2.90;1.50;;;;;;;;;;4876671;29;20422;-78
2021/10/08 00:23:45;;;;;;;3.72;1.73;;;;;;;;;;4875884;29;20067;-79
2021/10/08 00:26:12;;;;;;;3.25;1.73;;;;;;;;;;4871966;29;20045;-79
2021/10/08 00:28:40;;;;;;;2.70;1.50;;;;;;;;;;4859689;29;20049;-79
2021/10/08 00:31:07;;;;;;;2.70;1.30;;;;;;;;;;4865878;29;20482;-80
2021/10/08 00:33:34;;;;;;;3.42;1.58;;;;;;;;;;4858282;29;20049;-79
2021/10/08 00:36:04;;;;;;;3.85;1.65;;;;;;;;;;4828056;29;20053;-76
2021/10/08 00:38:31;;;;;;;4.07;2.00;;;;;;;;;;4841965;29;20506;-75
2021/10/08 00:40:58;;;;;;;3.97;1.73;;;;;;;;;;4859552;29;20052;-76
2021/10/08 00:43:26;;;;;;;5.07;1.90;;;;;;;;;;4852216;29;20033;-75
2021/10/08 00:45:53;;;;;;;4.15;2.15;;;;;;;;;;4843289;29;20063;-75
2021/10/08 00:48:20;;;;;;;4.07;1.70;;;;;;;;;;4853975;29;20063;-76
2021/10/08 00:50:49;;;;;;;3.55;1.50;;;;;;;;;;4865135;29;20076;-76
2021/10/08 00:53:17;;;;;;;4.65;2.38;;;;;;;;;;4879777;29;20041;-76
2021/10/08 00:55:49;;;;;;;3.85;1.75;;;;;;;;;;4873954;29;20124;-76
2021/10/08 00:58:18;;;;;;;2.88;1.15;;;;;;;;;;4874923;29;20072;-76
2021/10/08 01:00:47;;;;;;;6.63;2.05;;;;;;;;;;4861501;29;20037;-76
2021/10/08 01:03:15;;;;;;;4.55;1.75;;;;;;;;;;4847010;29;20050;-75
2021/10/08 01:05:42;;;;;;;4.55;2.17;;;;;;;;;;4875295;29;20451;-75
2021/10/08 01:08:10;;;;;;;4.30;1.83;;;;;;;;;;4859247;29;20049;-76
2021/10/08 01:10:38;;;;;;;4.53;2.00;;;;;;;;;;4845937;29;20051;-76
2021/10/08 01:13:08;;;;;;;3.72;1.77;;;;;;;;;;4847780;29;20080;-76
2021/10/08 01:15:38;;;;;;;3.42;1.50;;;;;;;;;;4880324;29;20041;-75
2021/10/08 01:18:06;;;;;;;4.05;1.92;;;;;;;;;;4860442;29;20463;-76
2021/10/08 01:20:34;;;;;;;4.18;1.90;;;;;;;;;;4846727;29;20565;-76
2021/10/08 01:23:15;;;;;;;4.70;2.67;;;;;;;;;;4860099;29;20106;-75
2021/10/08 01:25:50;;;;;;;5.90;2.28;;;;;;;;;;4872839;29;20542;-78
2021/10/08 01:28:22;;;;;;;3.58;1.33;;;;;;;;;;4868266;29;20417;-78
2021/10/08 01:30:50;;;;;;;4.15;1.75;;;;;;;;;;4861276;29;20506;-78
2021/10/08 01:33:24;;;;;;;4.60;1.80;;;;;;;;;;4860242;29;20402;-79
2021/10/08 01:35:54;;;;;;;5.10;2.05;;;;;;;;;;4862095;29;20045;-78
2021/10/08 01:38:22;;;;;;;3.35;1.42;;;;;;;;;;4861333;29;20466;-78
2021/10/08 01:40:50;;;;;;;4.63;2.17;;;;;;;;;;4861249;29;20522;-77
2021/10/08 01:43:18;;;;;;;4.63;1.75;;;;;;;;;;4862794;29;20065;-78
2021/10/08 01:45:49;;;;;;;4.05;1.88;;;;;;;;;;4847948;29;20154;-78
2021/10/08 01:48:26;;;;;;;3.30;1.65;;;;;;;;;;4840111;29;20415;-78
2021/10/08 01:50:53;;;;;;;3.63;1.27;;;;;;;;;;4868941;29;20057;-78
2021/10/08 01:53:21;;;;;;;3.25;1.30;;;;;;;;;;4860135;29;20076;-78
2021/10/08 01:55:49;;;;;;;3.08;1.30;;;;;;;;;;4874635;29;20045;-78
2021/10/08 01:58:20;;;;;;;4.47;1.70;;;;;;;;;;4856348;29;20045;-79
2021/10/08 02:00:48;;;;;;;3.53;1.60;;;;;;;;;;4859975;29;20046;-78
2021/10/08 02:03:24;;;;;;;2.97;1.23;;;;;;;;;;4868816;29;20084;-78
2021/10/08 02:05:52;;;;;;;3.28;1.23;;;;;;;;;;4859182;29;20511;-78
2021/10/08 02:08:21;;;;;;;3.90;1.30;;;;;;;;;;4840204;29;20052;-78
2021/10/08 02:10:51;;;;;;;3.13;1.33;;;;;;;;;;4859230;29;20053;-78
2021/10/08 02:13:19;;;;;;;3.78;1.52;;;;;;;;;;4876841;29;20072;-78
2021/10/08 02:15:47;;;;;;;3.25;1.65;;;;;;;;;;4872276;29;20038;-78
2021/10/08 02:18:14;;;;;;;3.70;1.45;;;;;;;;;;4868971;29;20578;-78
2021/10/08 02:20:44;;;;;;;3.53;1.48;;;;;;;;;;4843144;29;20129;-78
2021/10/08 02:23:13;;;;;;;3.72;1.30;;;;;;;;;;4872142;29;20076;-78
2021/10/08 02:25:44;;;;;;;3.03;1.13;;;;;;;;;;4860390;29;20047;-79
2021/10/08 02:28:11;;;;;;;3.97;1.33;;;;;;;;;;4857961;29;20061;-78
2021/10/08 02:30:40;;;;;;;3.25;1.35;;;;;;;;;;4867910;29;20041;-79
2021/10/08 02:33:08;;;;;;;3.72;1.33;;;;;;;;;;4862929;29;20044;-78
2021/10/08 02:35:36;;;;;;;2.50;1.25;;;;;;;;;;4864248;29;20045;-79
2021/10/08 02:38:05;;;;;;;2.95;1.27;;;;;;;;;;4859744;29;20041;-78
2021/10/08 02:40:33;;;;;;;2.72;1.50;;;;;;;;;;4846487;29;20041;-78
2021/10/08 02:43:02;;;;;;;2.83;1.02;;;;;;;;;;4861813;29;20065;-79
2021/10/08 02:45:30;;;;;;;3.92;1.40;;;;;;;;;;4859971;29;20127;-78
2021/10/08 02:47:58;;;;;;;3.33;1.45;;;;;;;;;;4844757;29;20045;-78
2021/10/08 02:50:27;;;;;;;2.67;0.98;;;;;;;;;;4847262;29;20049;-78
2021/10/08 02:52:55;;;;;;;3.30;1.65;;;;;;;;;;4856310;29;20065;-78
2021/10/08 02:55:23;;;;;;;3.35;1.20;;;;;;;;;;4856710;29;20140;-78
2021/10/08 02:57:51;;;;;;;4.15;1.27;;;;;;;;;;4874311;29;20141;-78
2021/10/08 03:00:19;;;;;;;4.20;1.40;;;;;;;;;;4876886;29;20394;-78
2021/10/08 03:02:47;;;;;;;2.47;1.13;;;;;;;;;;4845716;29;20038;-78
2021/10/08 03:05:15;;;;;;;2.97;1.20;;;;;;;;;;4859008;29;20053;-78
2021/10/08 03:07:42;;;;;;;3.35;1.52;;;;;;;;;;4874978;29;21778;-78
2021/10/08 03:10:14;;;;;;;3.20;1.23;;;;;;;;;;4847307;29;20516;-79
2021/10/08 03:12:44;;;;;;;4.03;1.38;;;;;;;;;;4861284;29;20400;-78
2021/10/08 03:15:11;;;;;;;4.35;1.92;;;;;;;;;;4874501;29;20046;-78
2021/10/08 03:17:41;;;;;;;3.17;1.30;;;;;;;;;;4846550;29;20087;-78
2021/10/08 03:20:11;;;;;;;2.75;1.00;;;;;;;;;;4850613;29;20137;-78
2021/10/08 03:22:40;;;;;;;3.10;1.38;;;;;;;;;;4868416;29;20436;-78
2021/10/08 03:25:08;;;;;;;2.60;1.05;;;;;;;;;;4854415;29;20053;-78
2021/10/08 03:27:37;;;;;;;3.15;1.00;;;;;;;;;;4874293;29;20044;-78
2021/10/08 03:30:06;;;;;;;2.30;0.95;;;;;;;;;;4861450;29;20059;-78
2021/10/08 03:32:34;;;;;;;3.33;1.38;;;;;;;;;;4843999;29;20053;-78
2021/10/08 03:35:03;;;;;;;3.13;1.20;;;;;;;;;;4855649;29;20045;-78
2021/10/08 03:40:09;;;;;;;3.25;1.23;;;;;;;;;;4849665;29;20132;-78
2021/10/08 03:42:36;;;;;;;3.15;1.17;;;;;;;;;;4854570;29;20374;-78
2021/10/08 03:45:11;;;;;;;3.00;1.17;;;;;;;;;;4837345;29;20060;-78
2021/10/08 03:50:26;;;;;;;2.67;0.90;;;;;;;;;;4862479;29;20440;-78
2021/10/08 03:52:54;;;;;;;4.32;2.17;;;;;;;;;;4867778;29;20072;-77
2021/10/08 03:55:21;;;;;;;2.53;0.98;;;;;;;;;;4853391;29;20037;-78
2021/10/08 03:57:49;;;;;;;2.75;1.10;;;;;;;;;;4843150;29;20356;-78
2021/10/08 04:00:17;;;;;;;2.83;1.15;;;;;;;;;;4851739;29;20136;-78
2021/10/08 04:02:55;;;;;;;2.42;0.90;;;;;;;;;;4869514;29;20442;-79
2021/10/08 04:05:23;;;;;;;3.10;1.15;;;;;;;;;;4845789;29;20074;-78
2021/10/08 04:07:50;;;;;;;6.68;1.85;;;;;;;;;;4870050;29;20948;-79
2021/10/08 04:10:18;;;;;;;3.08;1.17;;;;;;;;;;4840265;29;20541;-78
2021/10/08 04:12:46;;;;;;;2.60;1.10;;;;;;;;;;4870662;29;20071;-78
2021/10/08 04:15:13;;;;;;;3.42;1.60;;;;;;;;;;4843224;29;20072;-77
2021/10/08 04:17:41;;;;;;;4.05;1.10;;;;;;;;;;4869295;29;20049;-78
2021/10/08 04:20:10;;;;;;;3.92;1.33;;;;;;;;;;4870731;29;20053;-78
2021/10/08 04:22:37;;;;;;;3.38;1.17;;;;;;;;;;4870668;29;20033;-78
2021/10/08 04:25:07;;;;;;;3.40;1.35;;;;;;;;;;4845339;29;20053;-78
2021/10/08 04:27:35;;;;;;;3.58;1.30;;;;;;;;;;4838195;29;20053;-78
2021/10/08 04:30:04;;;;;;;2.92;1.27;;;;;;;;;;4844306;29;20047;-79
2021/10/08 04:32:35;;;;;;;3.13;1.30;;;;;;;;;;4855774;29;20140;-78
2021/10/08 04:35:03;;;;;;;3.20;1.30;;;;;;;;;;4853537;29;20041;-78
2021/10/08 04:37:31;;;;;;;2.55;0.85;;;;;;;;;;4853389;29;20051;-78
2021/10/08 04:39:59;;;;;;;3.10;1.27;;;;;;;;;;4847516;29;20127;-78
2021/10/08 04:42:27;;;;;;;5.13;1.50;;;;;;;;;;4847962;29;20117;-77
2021/10/08 04:44:56;;;;;;;4.88;1.75;;;;;;;;;;4868165;29;20510;-78
2021/10/08 04:47:24;;;;;;;3.53;1.45;;;;;;;;;;4847221;29;20049;-78
2021/10/08 04:49:51;;;;;;;3.15;1.30;;;;;;;;;;4867743;29;20041;-78
2021/10/08 04:52:19;;;;;;;3.35;1.15;;;;;;;;;;4844326;29;20140;-78
2021/10/08 04:54:49;;;;;;;4.30;2.13;;;;;;;;;;4848961;29;20495;-78
2021/10/08 04:57:17;;;;;;;3.35;1.25;;;;;;;;;;4872570;29;20041;-77
2021/10/08 04:59:45;;;;;;;5.28;1.83;;;;;;;;;;4840673;29;20559;-78
2021/10/08 05:02:12;;;;;;;5.30;1.98;;;;;;;;;;4858805;29;20045;-79
2021/10/08 05:04:40;;;;;;;4.78;1.90;;;;;;;;;;4867466;29;20483;-77
2021/10/08 05:07:09;;;;;;;3.33;1.40;;;;;;;;;;4872291;29;20747;-78
2021/10/08 05:09:41;;;;;;;4.05;1.63;;;;;;;;;;4848452;29;20118;-78
2021/10/08 05:12:08;;;;;;;4.05;1.42;;;;;;;;;;4859591;29;20045;-78
2021/10/08 05:14:36;;;;;;;3.30;1.38;;;;;;;;;;4840301;29;20413;-78
2021/10/08 05:17:04;;;;;;;4.75;1.33;;;;;;;;;;4858664;29;20128;-78
2021/10/08 05:19:31;;;;;;;2.70;1.08;;;;;;;;;;4860323;29;20138;-78
2021/10/08 05:22:08;;;;;;;2.72;1.25;;;;;;;;;;4857819;29;20152;-79
2021/10/08 05:24:36;;;;;;;2.47;1.00;;;;;;;;;;4856290;29;20037;-78
2021/10/08 05:27:05;;;;;;;2.38;0.93;;;;;;;;;;4859633;29;20045;-77
2021/10/08 05:29:32;;;;;;;2.70;1.30;;;;;;;;;;4857701;29;20045;-78
2021/10/08 05:32:00;;;;;;;3.72;1.40;;;;;;;;;;4855790;29;20064;-78
2021/10/08 05:34:31;;;;;;;3.63;1.50;;;;;;;;;;4855175;29;20116;-78
2021/10/08 05:36:59;;;;;;;3.58;1.63;;;;;;;;;;4859039;29;20414;-78
2021/10/08 05:39:30;;;;;;;4.30;1.70;;;;;;;;;;4854576;29;20080;-78
2021/10/08 05:41:57;;;;;;;5.82;1.77;;;;;;;;;;4856513;29;20045;-78
2021/10/08 05:44:24;;;;;;;3.63;1.48;;;;;;;;;;4856287;29;20056;-79
2021/10/08 05:46:54;;;;;;;4.40;2.10;;;;;;;;;;4851389;29;20053;-78
2021/10/08 05:49:23;;;;;;;4.13;1.60;;;;;;;;;;4860049;29;20049;-78
2021/10/08 05:51:51;;;;;;;4.45;1.77;;;;;;;;;;4862999;29;20396;-78
2021/10/08 05:54:18;;;;;;;3.80;1.38;;;;;;;;;;4854756;29;20409;-78
2021/10/08 05:56:45;;;;;;;4.18;2.13;;;;;;;;;;4865746;29;20103;-79
2021/10/08 05:59:13;;;;;;;4.57;1.73;;;;;;;;;;4846325;29;20413;-78
2021/10/08 06:01:42;;;;;;;4.22;1.77;;;;;;;;;;4859956;29;20490;-78
2021/10/08 06:04:09;;;;;;;4.55;1.60;;;;;;;;;;4862459;29;20048;-78
2021/10/08 06:06:39;;;;;;;4.75;1.75;;;;;;;;;;4871599;29;20144;-78
2021/10/08 06:09:08;;;;;;;4.00;1.95;;;;;;;;;;4871965;29;20057;-78
2021/10/08 06:11:37;;;;;;;4.25;1.60;;;;;;;;;;4852174;29;20050;-78
2021/10/08 06:14:04;;;;;;;5.57;1.63;;;;;;;;;;4848789;29;20136;-78
2021/10/08 06:16:32;;;;;;;5.13;2.13;;;;;;;;;;4856207;29;20042;-79
2021/10/08 06:19:02;;;;;;;4.13;1.52;;;;;;;;;;4866297;29;20511;-78
2021/10/08 06:21:31;;;;;;;6.25;1.95;;;;;;;;;;4871694;29;20058;-78
2021/10/08 06:23:59;;;;;;;3.30;1.67;;;;;;;;;;4873346;29;20373;-78
2021/10/08 06:26:26;;;;;;;3.90;2.20;;;;;;;;;;4851301;29;20141;-79
2021/10/08 06:28:54;;;;;;;3.97;1.77;;;;;;;;;;4858805;29;20045;-78
2021/10/08 06:31:21;;;;;;;3.83;1.80;;;;;;;;;;4824669;29;20486;-78
2021/10/08 06:33:52;;;;;;;4.35;1.95;;;;;;;;;;4853110;29;20550;-78
2021/10/08 06:36:20;;;;;;;4.57;2.33;;;;;;;;;;4851771;29;20066;-78
2021/10/08 06:38:48;;;;;;;3.75;1.58;;;;;;;;;;4856119;29;20056;-78
2021/10/08 06:41:17;;;;;;;4.93;2.15;;;;;;;;;;4842177;29;20046;-78
2021/10/08 06:43:47;;;;;;;5.25;2.33;;;;;;;;;;4839215;29;20037;-77
2021/10/08 06:46:25;;;;;;;4.65;2.38;;;;;;;;;;4854060;29;20073;-77
2021/10/08 06:48:55;;;;;;;4.05;1.58;;;;;;;;;;4855596;29;20056;-77
2021/10/08 06:51:25;;;;;;;4.68;2.10;;;;;;;;;;4854499;29;20053;-77
2021/10/08 06:53:52;;;;;;;5.38;1.83;;;;;;;;;;4854264;29;20143;-79
2021/10/08 06:56:21;;;;;;;4.78;1.42;;;;;;;;;;4840270;29;20061;-74
2021/10/08 06:59:06;;;;;;;4.35;1.98;;;;;;;;;;4873507;29;20045;-75
2021/10/08 07:01:34;;;;;;;4.65;2.15;;;;;;;;;;4844527;29;20069;-76
2021/10/08 07:04:02;;;;;;;4.55;2.28;;;;;;;;;;4829414;29;20051;-76
2021/10/08 07:06:33;;;;;;;3.55;1.63;;;;;;;;;;4860483;29;20053;-76
2021/10/08 07:09:07;;;;;;;4.75;2.17;;;;;;;;;;4859668;29;20052;-75
2021/10/08 07:11:35;;;;;;;4.55;1.83;;;;;;;;;;4859750;29;20053;-76
2021/10/08 07:14:03;;;;;;;6.10;1.80;;;;;;;;;;4860223;29;20140;-80
2021/10/08 07:16:30;;;;;;;5.57;2.42;;;;;;;;;;4860396;29;20490;-78
2021/10/08 07:19:04;;;;;;;5.75;2.70;;;;;;;;;;4857012;29;20049;-76
2021/10/08 07:21:33;;;;;;;4.38;1.50;;;;;;;;;;4856386;29;20050;-75
2021/10/08 07:24:01;;;;;;;4.55;2.08;;;;;;;;;;4860136;29;20633;-75
2021/10/08 07:26:30;;;;;;;5.40;2.20;;;;;;;;;;4839306;29;20106;-76
2021/10/08 07:28:57;;;;;;;4.68;1.95;;;;;;;;;;4867741;29;20153;-76
2021/10/08 07:31:24;;;;;;;4.05;1.85;;;;;;;;;;4860474;29;20045;-75
2021/10/08 07:33:52;;;;;;;4.50;2.00;;;;;;;;;;4844111;29;20446;-75
2021/10/08 07:36:19;;;;;;;9.77;3.78;;;;;;;;;;4859169;29;20037;-74
2021/10/08 07:38:47;;;;;;;7.15;3.30;;;;;;;;;;4860390;29;20042;-75
2021/10/08 07:41:15;;;;;;;6.35;2.40;;;;;;;;;;4860144;29;20073;-75
2021/10/08 07:43:42;;;;;;;5.53;2.03;;;;;;;;;;4859965;29;20087;-75
2021/10/08 07:46:10;;;;;;;5.43;2.58;;;;;;;;;;4841433;29;20415;-75
2021/10/08 07:48:38;;;;;;;5.20;2.13;;;;;;;;;;4859216;29;20049;-75
2021/10/08 07:51:06;;;;;;;4.85;1.90;;;;;;;;;;4843634;29;20075;-75
2021/10/08 07:53:33;;;;;;;4.43;2.10;;;;;;;;;;4859470;29;20056;-74
2021/10/08 07:56:01;;;;;;;5.80;2.60;;;;;;;;;;4858326;29;20085;-75
2021/10/08 07:58:29;;;;;;;4.68;2.47;;;;;;;;;;4843516;29;20547;-75
2021/10/08 08:00:57;;;;;;;4.82;2.42;;;;;;;;;;4843648;29;20050;-76
2021/10/08 08:03:25;;;;;;;4.65;2.00;;;;;;;;;;4858475;29;20045;-76
2021/10/08 08:05:52;;;;;;;6.72;2.60;;;;;;;;;;4860136;29;20102;-76
2021/10/08 08:08:20;;;;;;;4.88;2.13;;;;;;;;;;4858642;29;20379;-76
2021/10/08 08:10:48;;;;;;;4.53;1.90;;;;;;;;;;4858766;29;20061;-76
2021/10/08 08:13:16;;;;;;;4.88;2.17;;;;;;;;;;4858022;29;20463;-75
2021/10/08 08:15:43;;;;;;;4.53;2.55;;;;;;;;;;4831026;29;20053;-76
2021/10/08 08:18:11;;;;;;;5.78;2.58;;;;;;;;;;4848871;29;20065;-79
2021/10/08 08:20:39;;;;;;;6.28;2.50;;;;;;;;;;4847387;29;20052;-79
2021/10/08 08:23:07;;;;;;;6.32;2.10;;;;;;;;;;4859260;29;20046;-76
2021/10/08 08:25:34;;;;;;;5.15;2.30;;;;;;;;;;4843290;29;20109;-78
2021/10/08 08:28:02;;;;;;;6.72;2.90;;;;;;;;;;4839706;29;20461;-77
2021/10/08 08:30:29;;;;;;;7.22;2.63;;;;;;;;;;4843429;29;20077;-79
2021/10/08 08:32:56;;;;;;;5.97;2.80;;;;;;;;;;4857316;29;20057;-75
2021/10/08 08:35:24;;;;;;;5.60;2.58;;;;;;;;;;4858366;29;20048;-75
2021/10/08 08:37:52;;;;;;;6.68;3.22;;;;;;;;;;4843117;29;20045;-76
2021/10/08 08:40:19;;;;;;;6.15;2.88;;;;;;;;;;4859969;29;20038;-77
2021/10/08 08:42:47;;;;;;;6.28;2.72;;;;;;;;;;4863733;29;20129;-76
2021/10/08 08:45:14;;;;;;;5.95;2.78;;;;;;;;;;4857785;29;20083;-76
2021/10/08 08:47:41;;;;;;;5.57;2.97;;;;;;;;;;4860034;29;20082;-76
2021/10/08 08:50:13;;;;;;;5.43;2.53;;;;;;;;;;4867625;29;20053;-76
2021/10/08 08:52:44;;;;;;;5.70;2.50;;;;;;;;;;4858017;29;20094;-77
2021/10/08 08:55:12;;;;;;;4.82;2.45;;;;;;;;;;4842117;29;20559;-79
2021/10/08 08:57:39;;;;;;;6.30;2.85;;;;;;;;;;4860415;29;20504;-75
2021/10/08 09:00:09;;;;;;;4.75;2.60;;;;;;;;;;4828650;29;20498;-76
2021/10/08 09:02:39;;;;;;;7.03;3.47;;;;;;;;;;4874232;29;20510;-76
2021/10/08 09:05:14;;;;;;;8.05;3.22;;;;;;;;;;4858680;29;20085;-77
2021/10/08 09:07:41;;;;;;;6.65;3.28;;;;;;;;;;4858314;29;20075;-76
2021/10/08 09:10:12;;;;;;;6.90;3.10;;;;;;;;;;4842087;29;20050;-77
2021/10/08 09:12:40;;;;;;;4.65;2.50;;;;;;;;;;4839576;29;20088;-76
2021/10/08 09:15:08;;;;;;;6.78;3.35;;;;;;;;;;4856957;29;20045;-75
2021/10/08 09:17:35;;;;;;;5.00;2.25;;;;;;;;;;4859338;29;20475;-76
2021/10/08 09:20:06;;;;;;;5.35;2.78;;;;;;;;;;4853711;29;20092;-75
2021/10/08 09:22:40;;;;;;;7.28;3.10;;;;;;;;;;4860097;29;20064;-75
2021/10/08 09:25:12;;;;;;;5.13;2.45;;;;;;;;;;4843038;29;20175;-75
2021/10/08 09:27:40;;;;;;;6.28;2.47;;;;;;;;;;4859168;29;20102;-76
2021/10/08 09:30:08;;;;;;;6.07;3.03;;;;;;;;;;4858110;29;20049;-76
2021/10/08 09:32:50;;;;;;;5.07;2.25;;;;;;;;;;4873499;29;20463;-76
2021/10/08 09:35:27;;;;;;;5.65;2.92;;;;;;;;;;4861334;29;20182;-75
2021/10/08 09:37:54;;;;;;;6.72;3.00;;;;;;;;;;4844779;29;20058;-75
2021/10/08 09:40:23;;;;;;;6.15;2.88;;;;;;;;;;4853481;29;20041;-75
2021/10/08 09:42:54;;;;;;;5.72;2.45;;;;;;;;;;4864460;29;20098;-76
2021/10/08 09:45:42;;;;;;;6.68;2.83;;;;;;;;;;4856518;29;20049;-76
2021/10/08 09:48:10;;;;;;;5.53;3.00;;;;;;;;;;4859434;29;20065;-78
2021/10/08 09:50:38;;;;;;;6.90;2.92;;;;;;;;;;4845989;29;20045;-78
2021/10/08 09:53:10;;;;;;;6.45;3.05;;;;;;;;;;4846312;29;20499;-75
2021/10/08 09:55:39;;;;;;;7.10;2.67;;;;;;;;;;4860872;29;20117;-76
2021/10/08 09:58:07;;;;;;;6.40;3.10;;;;;;;;;;4858087;29;20037;-77
2021/10/08 10:00:38;;;;;;;7.22;3.00;;;;;;;;;;4860981;29;20034;-79
2021/10/08 10:03:06;;;;;;;7.20;3.08;;;;;;;;;;4862597;29;20097;-80
2021/10/08 10:05:34;;;;;;;6.47;2.92;;;;;;;;;;4861767;29;20080;-78
2021/10/08 10:08:01;;;;;;;6.78;2.78;;;;;;;;;;4860607;29;20074;-79
2021/10/08 10:10:30;;;;;;;8.43;3.58;;;;;;;;;;4847598;29;20061;-78
2021/10/08 10:12:59;;;;;;;6.78;2.70;;;;;;;;;;4862326;29;20151;-79
2021/10/08 10:15:28;;;;;;;9.65;3.80;;;;;;;;;;4845581;29;20045;-79
2021/10/08 10:17:57;;;;;;;10.05;3.50;;;;;;;;;;4845496;29;20621;-78
2021/10/08 10:20:25;;;;;;;10.00;3.72;;;;;;;;;;4860554;29;20053;-79
2021/10/08 10:22:53;;;;;;;7.30;3.00;;;;;;;;;;4841662;29;20054;-79
2021/10/08 10:25:20;;;;;;;8.73;3.88;;;;;;;;;;4845236;29;20463;-80
2021/10/08 10:27:47;;;;;;;8.13;4.05;;;;;;;;;;4860865;29;20057;-79
2021/10/08 10:30:18;;;;;;;8.68;3.95;;;;;;;;;;4862528;29;20049;-80
2021/10/08 10:32:46;;;;;;;8.88;4.13;;;;;;;;;;4862217;29;20080;-79
2021/10/08 10:35:32;;;;;;;9.25;3.72;;;;;;;;;;4846226;29;20124;-79
2021/10/08 10:38:19;;;;;;;8.82;4.57;;;;;;;;;;4860837;29;20467;-79
2021/10/08 10:40:47;;;;;;;6.22;2.33;;;;;;;;;;4861723;29;20051;-79
2021/10/08 10:43:15;;;;;;;9.43;3.72;;;;;;;;;;4846851;29;20413;-80
2021/10/08 10:45:50;;;;;;;8.77;3.72;;;;;;;;;;4856383;29;20057;-79
2021/10/08 10:48:25;;;;;;;7.30;2.95;;;;;;;;;;4874301;29;20057;-79
2021/10/08 10:51:11;;;;;;;;;;;;;;;;;;4860526;29;20053;-78
2021/10/08 10:53:51;;;;;;;6.05;2.10;;;;;;;;;;4863345;29;19968;-79
2021/10/08 10:56:36;;;;;;;8.85;3.10;;;;;;;;;;4861161;29;20077;-79
2021/10/08 10:59:22;;;;;;;5.45;2.58;;;;;;;;;;4861826;29;20042;-79
2021/10/08 11:02:08;;;;;;;9.23;3.75;;;;;;;;;;4858547;29;20101;-79
2021/10/08 11:04:37;;;;;;;7.40;3.13;;;;;;;;;;4853713;29;20037;-80
2021/10/08 11:07:05;;;;;;;8.15;3.25;;;;;;;;;;4844842;29;20471;-79
2021/10/08 11:09:33;;;;;;;6.32;2.40;;;;;;;;;;4860715;29;20076;-80
2021/10/08 11:12:19;;;;;;;8.40;3.42;;;;;;;;;;4859624;29;20045;-81
2021/10/08 11:14:46;;;;;;;6.20;3.03;;;;;;;;;;4867401;29;20061;-80
2021/10/08 11:17:54;;;;;;;8.60;3.85;;;;;;;;;;4859243;29;20074;-81
2021/10/08 11:20:30;;;;;;;7.63;3.45;;;;;;;;;;4817012;29;20058;-80
2021/10/08 11:22:59;;;;;;;6.30;3.15;;;;;;;;;;4844151;29;20137;-78
2021/10/08 11:25:33;;;;;;;7.72;3.50;;;;;;;;;;4844602;29;20501;-79
2021/10/08 11:28:02;;;;;;;8.43;3.83;;;;;;;;;;4844466;29;20143;-78
2021/10/08 11:30:30;;;;;;;7.57;3.85;;;;;;;;;;4842338;29;20042;-78
2021/10/08 11:32:58;;;;;;;7.50;4.05;;;;;;;;;;4860762;29;20120;-78
2021/10/08 11:35:33;;;;;;;7.32;3.20;;;;;;;;;;4828916;29;20148;-80
2021/10/08 11:38:01;;;;;;;5.55;2.70;;;;;;;;;;4829102;29;20097;-80
2021/10/08 11:40:31;;;;;;;5.47;2.83;;;;;;;;;;4846264;29;20033;-80
2021/10/08 11:43:04;;;;;;;5.60;2.72;;;;;;;;;;4847439;29;20041;-79
2021/10/08 11:45:40;;;;;;;5.90;2.53;;;;;;;;;;4843257;29;20050;-80
2021/10/08 11:48:13;;;;;;;5.00;2.60;;;;;;;;;;4872353;29;20116;-80
2021/10/08 11:50:45;;;;;;;5.40;2.22;;;;;;;;;;4861924;29;20475;-79
2021/10/08 11:53:13;;;;;;;4.18;1.67;;;;;;;;;;4855664;29;20109;-79
2021/10/08 11:56:11;;;;;;;3.65;1.80;;;;;;;;;;4844933;29;20076;-80
2021/10/08 11:58:38;;;;;;;4.35;1.70;;;;;;;;;;4867006;29;20049;-77
2021/10/08 12:01:05;;;;;;;3.65;1.70;;;;;;;;;;4858361;29;20044;-80
2021/10/08 12:03:40;;;;;;;4.53;1.63;;;;;;;;;;4843834;29;20537;-79
2021/10/08 12:06:07;;;;;;;3.63;1.58;;;;;;;;;;4854953;29;20483;-79
2021/10/08 12:08:36;;;;;;;2.70;1.05;;;;;;;;;;4860381;29;20041;-80
2021/10/08 12:11:08;;;;;;;3.08;1.10;;;;;;;;;;4855546;29;20079;-80
2021/10/08 12:13:36;;;;;;;2.50;1.05;;;;;;;;;;4847328;29;20056;-79
2021/10/08 12:16:03;;;;;;;2.67;0.90;;;;;;;;;;4861550;29;20046;-78
2021/10/08 12:18:31;;;;;;;2.75;0.90;;;;;;;;;;4856339;29;20037;-80
2021/10/08 12:21:12;;;;;;;2.80;1.08;;;;;;;;;;4860668;29;20141;-81
2021/10/08 12:23:40;;;;;;;2.85;0.98;;;;;;;;;;4838050;29;20567;-82
2021/10/08 12:26:07;;;;;;;2.25;0.90;;;;;;;;;;4829026;29;20044;-81
2021/10/08 12:28:35;;;;;;;1.88;0.80;;;;;;;;;;4834417;29;20050;-82
2021/10/08 12:31:04;;;;;;;1.80;0.57;;;;;;;;;;4843834;29;20427;-81
2021/10/08 12:33:39;;;;;;;1.63;0.60;;;;;;;;;;4833683;29;20451;-81
2021/10/08 12:36:31;;;;;;;1.90;0.85;;;;;;;;;;4843517;29;20053;-81
2021/10/08 12:39:00;;;;;;;2.58;0.70;;;;;;;;;;4838966;29;20053;-84
2021/10/08 12:41:43;;;;;;;1.63;0.65;;;;;;;;;;4846857;29;20076;-83
2021/10/08 12:44:14;;;;;;;1.75;0.90;;;;;;;;;;4843210;29;20050;-79
2021/10/08 12:46:43;;;;;;;1.83;0.65;;;;;;;;;;4827394;29;20049;-78
2021/10/08 12:49:11;;;;;;;0.95;0.60;;;;;;;;;;4859905;29;20049;-79
2021/10/08 12:51:45;;;;;;;2.30;0.60;;;;;;;;;;4863279;29;20041;-78
2021/10/08 12:54:17;;;;;;;1.70;0.82;;;;;;;;;;4870215;29;20049;-79
2021/10/08 12:56:45;;;;;;;2.87;0.93;;;;;;;;;;4868024;29;20038;-79
2021/10/08 12:59:13;;;;;;;2.00;1.02;;;;;;;;;;4831996;29;20566;-82
2021/10/08 13:01:54;;;;;;;3.70;1.48;;;;;;;;;;4846760;29;20053;-81
2021/10/08 13:04:22;;;;;;;3.45;1.55;;;;;;;;;;4851285;29;20046;-78
2021/10/08 13:06:50;;;;;;;4.15;1.73;;;;;;;;;;4863296;29;20139;-79
2021/10/08 13:09:20;;;;;;;3.80;1.73;;;;;;;;;;4849979;29;20046;-79
2021/10/08 13:11:49;;;;;;;4.43;1.70;;;;;;;;;;4844500;29;20505;-80
2021/10/08 13:14:27;;;;;;;4.72;2.38;;;;;;;;;;4831648;29;20144;-82
2021/10/08 13:16:55;;;;;;;5.28;2.92;;;;;;;;;;4866771;29;20042;-81
2021/10/08 13:19:36;;;;;;;5.45;3.20;;;;;;;;;;4863247;29;21920;-81
2021/10/08 13:22:05;;;;;;;6.88;3.50;;;;;;;;;;4861941;29;20060;-79
2021/10/08 13:24:33;;;;;;;5.13;2.90;;;;;;;;;;4861826;29;20057;-80
2021/10/08 13:27:00;;;;;;;5.25;3.05;;;;;;;;;;4869263;29;20634;-80
2021/10/08 13:29:28;;;;;;;5.65;2.78;;;;;;;;;;4873183;29;20046;-81
2021/10/08 13:31:56;;;;;;;6.15;3.20;;;;;;;;;;4851509;29;20076;-80
2021/10/08 13:34:25;;;;;;;5.35;2.97;;;;;;;;;;4859283;29;20059;-80
2021/10/08 13:37:07;;;;;;;6.72;3.13;;;;;;;;;;4861612;29;20106;-79
2021/10/08 13:39:35;;;;;;;6.70;2.92;;;;;;;;;;4865755;29;20405;-80
2021/10/08 13:42:03;;;;;;;6.40;4.18;;;;;;;;;;4861909;29;20114;-80
2021/10/08 13:44:31;;;;;;;8.25;5.15;;;;;;;;;;4862260;29;20060;-81
2021/10/08 13:46:59;;;;;;;6.30;4.10;;;;;;;;;;4864248;29;20065;-84
2021/10/08 13:49:26;;;;;;;6.03;3.70;;;;;;;;;;4863780;29;20073;-79
2021/10/08 13:51:53;;;;;;;5.75;3.25;;;;;;;;;;4849177;29;20053;-78
2021/10/08 13:54:21;;;;;;;6.22;3.60;;;;;;;;;;4873557;29;20538;-78
2021/10/08 13:56:48;;;;;;;7.65;3.80;;;;;;;;;;4862894;29;20487;-79
2021/10/08 13:59:15;;;;;;;5.35;2.97;;;;;;;;;;4846285;29;20141;-78
2021/10/08 14:01:57;;;;;;;5.28;3.10;;;;;;;;;;4861218;29;20460;-79
2021/10/08 14:04:37;;;;;;;5.20;3.00;;;;;;;;;;4862360;29;20402;-79
2021/10/08 14:12:17;;;;;;;4.00;2.10;;;;;;;;;;4849264;29;20045;-79
2021/10/08 14:14:45;;;;;;;4.20;2.33;;;;;;;;;;4861315;29;20042;-80
2021/10/08 14:17:15;;;;;;;3.85;2.42;;;;;;;;;;4860538;29;20102;-79
2021/10/08 14:19:43;;;;;;;4.20;2.58;;;;;;;;;;4845007;29;20539;-79
2021/10/08 14:22:10;;;;;;;4.63;2.92;;;;;;;;;;4876437;29;20076;-80
2021/10/08 14:24:37;;;;;;;4.38;2.55;;;;;;;;;;4849115;29;20101;-78
2021/10/08 14:27:05;;;;;;;3.80;1.98;;;;;;;;;;4880585;29;20041;-78
2021/10/08 14:29:32;;;;;;;4.35;2.20;;;;;;;;;;4850286;29;20128;-79
2021/10/08 14:31:59;;;;;;;3.83;1.92;;;;;;;;;;4866149;29;20167;-78
2021/10/08 14:34:27;;;;;;;3.85;1.88;;;;;;;;;;4880360;29;20409;-79
2021/10/08 14:36:54;;;;;;;4.60;2.60;;;;;;;;;;4880753;29;20075;-77
2021/10/08 14:39:22;;;;;;;3.42;1.77;;;;;;;;;;4879270;29;20045;-78
2021/10/08 14:41:49;;;;;;;6.43;2.53;;;;;;;;;;4848734;29;20049;-79
2021/10/08 14:44:16;;;;;;;2.33;1.35;;;;;;;;;;4863294;29;20045;-78
2021/10/08 14:46:44;;;;;;;3.53;1.88;;;;;;;;;;4869342;29;20045;-78
2021/10/08 14:49:11;;;;;;;3.30;1.90;;;;;;;;;;4886801;29;20051;-82
2021/10/08 14:51:43;;;;;;;2.95;1.15;;;;;;;;;;4862937;29;20061;-78
2021/10/08 14:54:20;;;;;;;4.10;1.67;;;;;;;;;;4863782;29;20049;-78
2021/10/08 14:59:33;;;;;;;3.42;1.60;;;;;;;;;;4869531;29;20545;-78
2021/10/08 15:02:04;;;;;;;4.63;2.45;;;;;;;;;;4885742;29;20104;-77
2021/10/08 15:04:31;;;;;;;3.17;1.58;;;;;;;;;;4870973;29;20126;-80
2021/10/08 15:07:00;;;;;;;3.92;1.73;;;;;;;;;;4848234;29;20093;-77
2021/10/08 15:09:27;;;;;;;3.30;2.08;;;;;;;;;;4879973;29;20057;-80
2021/10/08 15:11:55;;;;;;;3.42;1.90;;;;;;;;;;4879791;29;20052;-79